Time;durP1;ratioP1;P1;durP2;ratioP2;P2;SDS_P1;SDS_P2;PMS_P1;PMS_P2;Temp;Humidity;BMP_temperature;BMP_pressure;BME280_temperature;BME280_humidity;BME280_pressure;Samples;Min_cycle;Max_cycle;Signal;HPM_P1;HPM_P2
2023/04/01 00:01:00;;;;;;;;;;;;;;;;;;5051811;28;4658;-57
2023/04/01 00:03:26;;;;;;;;;;;;;;;;;;5040246;28;4508;-58
2023/04/01 00:05:52;;;;;;;;;;;;;;;;;;5048770;28;4780;-58
2023/04/01 00:08:17;;;;;;;;;;;;;;;;;;5056570;28;4722;-57
2023/04/01 00:10:43;;;;;;;;;;;;;;;;;;5054212;28;1161;-56
2023/04/01 00:13:08;;;;;;;;;;;;;;;;;;5054131;28;5042;-58
2023/04/01 00:15:33;;;;;;;;;;;;;;;;;;5055910;28;4881;-56
2023/04/01 00:17:59;;;;;;;;;;;;;;;;;;5059185;28;5186;-57
2023/04/01 00:20:25;;;;;;;;;;;;;;;;;;5043447;28;4607;-57
2023/04/01 00:22:50;;;;;;;;;;;;;;;;;;5060040;28;1216;-56
2023/04/01 00:25:15;;;;;;;;;;;;;;;;;;5065200;28;4839;-57
2023/04/01 00:27:41;;;;;;;;;;;;;;;;;;5055173;28;5022;-57
2023/04/01 00:30:07;;;;;;;;;;;;;;;;;;5050779;28;5073;-58
2023/04/01 00:32:32;;;;;;;;;;;;;;;;;;5048577;28;4974;-58
2023/04/01 00:35:00;;;;;;;;;;;;;;;;;;5055047;28;2233;-58
2023/04/01 00:37:26;;;;;;;;;;;;;;;;;;5053251;28;5097;-55
2023/04/01 00:39:51;;;;;;;;;;;;;;;;;;5048158;28;4519;-58
2023/04/01 00:42:17;;;;;;;;;;;;;;;;;;5049413;28;5831;-57
2023/04/01 00:44:42;;;;;;;;;;;;;;;;;;5044118;28;4458;-57
2023/04/01 00:47:07;;;;;;;;;;;;;;;;;;5049771;28;5017;-57
2023/04/01 00:49:33;;;;;;;;;;;;;;;;;;5048138;28;1531;-56
2023/04/01 00:51:59;;;;;;;;;;;;;;;;;;5049703;28;4414;-55
2023/04/01 00:54:25;;;;;;;;;;;;;;;;;;5051499;28;4794;-57
2023/04/01 00:56:55;;;;;;;;;;;;;;;;;;5057750;28;4656;-57
2023/04/01 00:59:21;;;;;;;;;;;;;;;;;;5055107;28;4544;-57
2023/04/01 01:01:46;;;;;;;;;;;;;;;;;;5054266;28;1249;-57
2023/04/01 01:04:31;;;;;;;;;;;;;;;;;;5047724;28;5025;-55
2023/04/01 01:07:02;;;;;;;;;;;;;;;;;;5049517;28;4604;-56
2023/04/01 01:09:46;;;;;;;;;;;;;;;;;;5055635;28;4465;-57
2023/04/01 01:12:14;;;;;;;;;;;;;;;;;;5052029;28;5049;-57
2023/04/01 01:14:59;;;;;;;;;;;;;;;;;;5047639;28;4570;-57
2023/04/01 01:17:30;;;;;;;;;;;;;;;;;;5090142;28;5107;-58
2023/04/01 01:20:14;;;;;;;;;;;;;;;;;;5051080;28;977;-57
2023/04/01 01:22:43;;;;;;;;;;;;;;;;;;5040622;28;5081;-57
2023/04/01 01:25:20;;;;;;;;;;;;;;;;;;5050989;28;4640;-58
2023/04/01 01:27:51;;;;;;;;;;;;;;;;;;5053884;28;4641;-56
2023/04/01 01:30:36;;;;;;;;;;;;;;;;;;5088286;28;4759;-58
2023/04/01 01:33:05;;;;;;;;;;;;;;;;;;5050346;28;5125;-57
2023/04/01 01:35:33;;;;;;;;;;;;;;;;;;5059937;28;4720;-58
2023/04/01 01:38:00;;;;;;;;;;;;;;;;;;5051778;28;3321;-58
2023/04/01 01:40:25;;;;;;;;;;;;;;;;;;5055569;28;4820;-58
2023/04/01 01:42:51;;;;;;;;;;;;;;;;;;5089770;28;4766;-58
2023/04/01 01:45:18;;;;;;;;;;;;;;;;;;5055451;28;4897;-57
2023/04/01 01:47:43;;;;;;;;;;;;;;;;;;5090277;28;4983;-55
2023/04/01 01:50:08;;;;;;;;;;;;;;;;;;5055230;28;5287;-58
2023/04/01 01:52:33;;;;;;;;;;;;;;;;;;5085789;28;3303;-58
2023/04/01 01:54:59;;;;;;;;;;;;;;;;;;5056167;28;4599;-57
2023/04/01 01:57:34;;;;;;;;;;;;;;;;;;5050688;28;5089;-58
2023/04/01 02:00:02;;;;;;;;;;;;;;;;;;5047260;28;5844;-55
2023/04/01 02:02:31;;;;;;;;;;;;;;;;;;5087476;28;5383;-57
2023/04/01 02:04:56;;;;;;;;;;;;;;;;;;5059070;28;4712;-57
2023/04/01 02:07:25;;;;;;;;;;;;;;;;;;5064774;28;4906;-57
2023/04/01 02:09:51;;;;;;;;;;;;;;;;;;5053966;28;4746;-57
2023/04/01 02:12:17;;;;;;;;;;;;;;;;;;5058391;28;4537;-56
2023/04/01 02:14:51;;;;;;;;;;;;;;;;;;5084797;28;4741;-57
2023/04/01 02:17:17;;;;;;;;;;;;;;;;;;5058777;28;5202;-55
2023/04/01 02:19:52;;;;;;;;;;;;;;;;;;5049145;28;3206;-58
2023/04/01 02:22:21;;;;;;;;;;;;;;;;;;5050826;28;4495;-57
2023/04/01 02:24:46;;;;;;;;;;;;;;;;;;5050152;28;4478;-56
2023/04/01 02:27:12;;;;;;;;;;;;;;;;;;5051553;28;4465;-55
2023/04/01 02:29:37;;;;;;;;;;;;;;;;;;5051669;28;5123;-56
2023/04/01 02:32:02;;;;;;;;;;;;;;;;;;5089829;28;4936;-57
2023/04/01 02:34:28;;;;;;;;;;;;;;;;;;5047441;28;1658;-58
2023/04/01 02:36:54;;;;;;;;;;;;;;;;;;5057057;28;4537;-58
2023/04/01 02:39:19;;;;;;;;;;;;;;;;;;5081334;28;4464;-56
2023/04/01 02:41:45;;;;;;;;;;;;;;;;;;5049965;28;4690;-54
2023/04/01 02:44:11;;;;;;;;;;;;;;;;;;5058099;28;5080;-57
2023/04/01 02:46:36;;;;;;;;;;;;;;;;;;5050595;28;1977;-55
2023/04/01 02:49:01;;;;;;;;;;;;;;;;;;5053572;28;4448;-56
2023/04/01 02:51:27;;;;;;;;;;;;;;;;;;5057141;28;5307;-55
2023/04/01 02:53:52;;;;;;;;;;;;;;;;;;5052080;28;4648;-57
2023/04/01 02:56:19;;;;;;;;;;;;;;;;;;5050517;28;4447;-52
2023/04/01 02:58:44;;;;;;;;;;;;;;;;;;5049223;28;1230;-56
2023/04/01 03:01:10;;;;;;;;;;;;;;;;;;5056704;28;4542;-57
2023/04/01 03:03:35;;;;;;;;;;;;;;;;;;5048270;28;5160;-55
2023/04/01 03:06:07;;;;;;;;;;;;;;;;;;5051398;28;4845;-56
2023/04/01 03:08:32;;;;;;;;;;;;;;;;;;5052581;28;4497;-56
2023/04/01 03:10:57;;;;;;;;;;;;;;;;;;5054535;28;1295;-57
2023/04/01 03:13:23;;;;;;;;;;;;;;;;;;5057884;28;4419;-54
2023/04/01 03:15:48;;;;;;;;;;;;;;;;;;5053184;28;4629;-53
2023/04/01 03:18:13;;;;;;;;;;;;;;;;;;5052089;28;4843;-50
2023/04/01 03:20:38;;;;;;;;;;;;;;;;;;5059132;28;4459;-54
2023/04/01 03:23:04;;;;;;;;;;;;;;;;;;5051916;28;4526;-55
2023/04/01 03:25:30;;;;;;;;;;;;;;;;;;5050089;28;2671;-56
2023/04/01 03:27:55;;;;;;;;;;;;;;;;;;5056679;28;4442;-55
2023/04/01 03:30:21;;;;;;;;;;;;;;;;;;5054074;28;4961;-56
2023/04/01 03:32:46;;;;;;;;;;;;;;;;;;5055713;28;5393;-55
2023/04/01 03:35:11;;;;;;;;;;;;;;;;;;5052836;28;4840;-56
2023/04/01 03:37:36;;;;;;;;;;;;;;;;;;5049753;28;1238;-54
2023/04/01 03:40:02;;;;;;;;;;;;;;;;;;5051248;28;4974;-56
2023/04/01 03:42:27;;;;;;;;;;;;;;;;;;5058707;28;5199;-57
2023/04/01 03:44:52;;;;;;;;;;;;;;;;;;5047961;28;5080;-57
2023/04/01 03:47:18;;;;;;;;;;;;;;;;;;5057143;28;4484;-57
2023/04/01 03:49:43;;;;;;;;;;;;;;;;;;5049603;28;1080;-56
2023/04/01 03:52:09;;;;;;;;;;;;;;;;;;5056030;28;4466;-57
2023/04/01 03:54:34;;;;;;;;;;;;;;;;;;5048534;28;4531;-56
2023/04/01 03:57:00;;;;;;;;;;;;;;;;;;5050528;28;4481;-56
2023/04/01 03:59:25;;;;;;;;;;;;;;;;;;5057313;28;5863;-56
2023/04/01 04:01:51;;;;;;;;;;;;;;;;;;5061491;28;1933;-56
2023/04/01 04:04:16;;;;;;;;;;;;;;;;;;5044097;28;4650;-56
2023/04/01 04:06:41;;;;;;;;;;;;;;;;;;5055929;28;5266;-56
2023/04/01 04:09:06;;;;;;;;;;;;;;;;;;5054174;28;5387;-57
2023/04/01 04:11:32;;;;;;;;;;;;;;;;;;5057982;28;5376;-56
2023/04/01 04:13:58;;;;;;;;;;;;;;;;;;5056962;28;3231;-57
2023/04/01 04:16:23;;;;;;;;;;;;;;;;;;5051190;28;5038;-57
2023/04/01 04:18:48;;;;;;;;;;;;;;;;;;5053669;28;4838;-55
2023/04/01 04:21:14;;;;;;;;;;;;;;;;;;5053751;28;4687;-53
2023/04/01 04:23:39;;;;;;;;;;;;;;;;;;5056986;28;4584;-56
2023/04/01 04:26:07;;;;;;;;;;;;;;;;;;5050209;28;4762;-55
2023/04/01 04:28:33;;;;;;;;;;;;;;;;;;5043058;28;3340;-57
2023/04/01 04:30:58;;;;;;;;;;;;;;;;;;5047647;28;4869;-56
2023/04/01 04:33:24;;;;;;;;;;;;;;;;;;5045277;28;4616;-57
2023/04/01 04:35:49;;;;;;;;;;;;;;;;;;5055032;28;4524;-57
2023/04/01 04:38:15;;;;;;;;;;;;;;;;;;5035964;28;4478;-56
2023/04/01 04:40:40;;;;;;;;;;;;;;;;;;5057056;28;3127;-55
2023/04/01 04:43:05;;;;;;;;;;;;;;;;;;5063522;28;4497;-55
2023/04/01 04:45:31;;;;;;;;;;;;;;;;;;5048629;28;4597;-56
2023/04/01 04:47:56;;;;;;;;;;;;;;;;;;5053094;28;4899;-56
2023/04/01 04:50:21;;;;;;;;;;;;;;;;;;5064679;28;5211;-57
2023/04/01 04:52:47;;;;;;;;;;;;;;;;;;5056248;28;1838;-55
2023/04/01 04:55:12;;;;;;;;;;;;;;;;;;5062015;28;4994;-57
2023/04/01 04:57:37;;;;;;;;;;;;;;;;;;5059805;28;4446;-57
2023/04/01 05:00:02;;;;;;;;;;;;;;;;;;5043880;28;4759;-56
2023/04/01 05:02:28;;;;;;;;;;;;;;;;;;5049497;28;4870;-57
2023/04/01 05:04:53;;;;;;;;;;;;;;;;;;5054786;28;4661;-57
2023/04/01 05:07:18;;;;;;;;;;;;;;;;;;5053469;28;4576;-57
2023/04/01 05:09:45;;;;;;;;;;;;;;;;;;5059983;28;4609;-54
2023/04/01 05:12:12;;;;;;;;;;;;;;;;;;5050231;28;4699;-57
2023/04/01 05:14:38;;;;;;;;;;;;;;;;;;5057071;28;4628;-56
2023/04/01 05:17:03;;;;;;;;;;;;;;;;;;5050232;28;5120;-56
2023/04/01 05:19:28;;;;;;;;;;;;;;;;;;5052146;28;1367;-57
2023/04/01 05:21:53;;;;;;;;;;;;;;;;;;5059105;28;4457;-57
2023/04/01 05:24:19;;;;;;;;;;;;;;;;;;5061765;28;4574;-56
2023/04/01 05:26:44;;;;;;;;;;;;;;;;;;5059834;28;4457;-54
2023/04/01 05:29:10;;;;;;;;;;;;;;;;;;5051286;28;4495;-56
2023/04/01 05:31:35;;;;;;;;;;;;;;;;;;5051483;28;1132;-56
2023/04/01 05:34:00;;;;;;;;;;;;;;;;;;5051172;28;4599;-56
2023/04/01 05:36:25;;;;;;;;;;;;;;;;;;5049313;28;5810;-57
2023/04/01 05:38:51;;;;;;;;;;;;;;;;;;5059189;28;4441;-56
2023/04/01 05:41:16;;;;;;;;;;;;;;;;;;5048224;28;4610;-57
2023/04/01 05:43:41;;;;;;;;;;;;;;;;;;5052234;28;1444;-57
2023/04/01 05:46:07;;;;;;;;;;;;;;;;;;5048939;28;4613;-56
2023/04/01 05:48:32;;;;;;;;;;;;;;;;;;5053170;28;5301;-57
2023/04/01 05:50:58;;;;;;;;;;;;;;;;;;5055231;28;4625;-57
2023/04/01 05:53:23;;;;;;;;;;;;;;;;;;5055156;28;4522;-57
2023/04/01 05:55:48;;;;;;;;;;;;;;;;;;5056500;28;1226;-57
2023/04/01 05:58:14;;;;;;;;;;;;;;;;;;5050032;28;4399;-56
2023/04/01 06:00:39;;;;;;;;;;;;;;;;;;5055166;28;4928;-56
2023/04/01 06:03:04;;;;;;;;;;;;;;;;;;5054240;28;4865;-58
2023/04/01 06:05:30;;;;;;;;;;;;;;;;;;5050259;28;5234;-57
2023/04/01 06:07:58;;;;;;;;;;;;;;;;;;5062671;28;2004;-56
2023/04/01 06:10:23;;;;;;;;;;;;;;;;;;5050921;28;4462;-56
2023/04/01 06:12:51;;;;;;;;;;;;;;;;;;5050711;28;4792;-57
2023/04/01 06:15:25;;;;;;;;;;;;;;;;;;5053829;28;4429;-56
2023/04/01 06:17:57;;;;;;;;;;;;;;;;;;5058069;28;5089;-55
2023/04/01 06:20:28;;;;;;;;;;;;;;;;;;5053556;28;4502;-55
2023/04/01 06:23:06;;;;;;;;;;;;;;;;;;5067503;28;1196;-57
2023/04/01 06:25:49;;;;;;;;;;;;;;;;;;5051586;28;5032;-57
2023/04/01 06:28:29;;;;;;;;;;;;;;;;;;5055770;28;4452;-56
2023/04/01 06:30:55;;;;;;;;;;;;;;;;;;5046548;28;4551;-57
2023/04/01 06:33:38;;;;;;;;;;;;;;;;;;5054999;28;4426;-57
2023/04/01 06:36:30;;;;;;;;;;;;;;;;;;5051485;28;4620;-57
2023/04/01 06:38:55;;;;;;;;;;;;;;;;;;5051740;28;5035;-65
2023/04/01 06:41:29;;;;;;;;;;;;;;;;;;5046876;28;5823;-66
2023/04/01 06:43:58;;;;;;;;;;;;;;;;;;5086290;28;3207;-64
2023/04/01 06:46:30;;;;;;;;;;;;;;;;;;5053081;28;4413;-57
2023/04/01 06:49:15;;;;;;;;;;;;;;;;;;5057245;28;4648;-56
2023/04/01 06:51:43;;;;;;;;;;;;;;;;;;5045622;28;4853;-56
2023/04/01 06:54:17;;;;;;;;;;;;;;;;;;5050958;28;4627;-58
2023/04/01 06:56:46;;;;;;;;;;;;;;;;;;5075579;28;4864;-59
2023/04/01 06:59:14;;;;;;;;;;;;;;;;;;5047221;28;4684;-59
2023/04/01 07:01:44;;;;;;;;;;;;;;;;;;5045088;28;3327;-60
2023/04/01 07:04:09;;;;;;;;;;;;;;;;;;5036798;28;4709;-57
2023/04/01 07:06:34;;;;;;;;;;;;;;;;;;5050230;28;4627;-58
2023/04/01 07:09:00;;;;;;;;;;;;;;;;;;5052260;28;4634;-58
2023/04/01 07:11:30;;;;;;;;;;;;;;;;;;5037639;28;4541;-58
2023/04/01 07:13:59;;;;;;;;;;;;;;;;;;5051245;28;3055;-58
2023/04/01 07:16:35;;;;;;;;;;;;;;;;;;5051988;28;4685;-59
2023/04/01 07:19:12;;;;;;;;;;;;;;;;;;5051893;28;4580;-59
2023/04/01 07:21:51;;;;;;;;;;;;;;;;;;5045389;28;5209;-58
2023/04/01 07:24:37;;;;;;;;;;;;;;;;;;5096740;28;5049;-58
2023/04/01 07:27:02;;;;;;;;;;;;;;;;;;5046223;28;4964;-59
2023/04/01 07:29:28;;;;;;;;;;;;;;;;;;5047204;28;4845;-56
2023/04/01 07:31:56;;;;;;;;;;;;;;;;;;5042422;28;3302;-57
2023/04/01 07:34:44;;;;;;;;;;;;;;;;;;5046380;28;4397;-57
2023/04/01 07:37:25;;;;;;;;;;;;;;;;;;5027824;28;4987;-56
2023/04/01 07:39:53;;;;;;;;;;;;;;;;;;5043420;28;4476;-52
2023/04/01 07:42:23;;;;;;;;;;;;;;;;;;5053700;28;4456;-63
2023/04/01 07:44:57;;;;;;;;;;;;;;;;;;5080042;28;4501;-68
2023/04/01 07:47:22;;;;;;;;;;;;;;;;;;5051527;28;4629;-63
2023/04/01 07:50:06;;;;;;;;;;;;;;;;;;5042639;28;3756;-59
2023/04/01 07:52:32;;;;;;;;;;;;;;;;;;5043313;28;5007;-65
2023/04/01 07:55:00;;;;;;;;;;;;;;;;;;5046536;28;4563;-61
2023/04/01 07:57:45;;;;;;;;;;;;;;;;;;5028936;28;4555;-63
2023/04/01 08:00:11;;;;;;;;;;;;;;;;;;5027971;28;4713;-63
2023/04/01 08:02:56;;;;;;;;;;;;;;;;;;5036206;28;4488;-64
2023/04/01 08:05:24;;;;;;;;;;;;;;;;;;5036258;28;4882;-63
2023/04/01 08:08:08;;;;;;;;;;;;;;;;;;5072032;28;1972;-63
2023/04/01 08:10:40;;;;;;;;;;;;;;;;;;5031536;28;4913;-65
2023/04/01 08:13:08;;;;;;;;;;;;;;;;;;5032737;28;4633;-63
2023/04/01 08:15:33;;;;;;;;;;;;;;;;;;5032376;28;5053;-64
2023/04/01 08:18:04;;;;;;;;;;;;;;;;;;5035497;28;4585;-69
2023/04/01 08:20:30;;;;;;;;;;;;;;;;;;5047202;28;4438;-69
2023/04/01 08:23:01;;;;;;;;;;;;;;;;;;5043698;28;3197;-64
2023/04/01 08:25:27;;;;;;;;;;;;;;;;;;5076725;28;5093;-65
2023/04/01 08:28:15;;;;;;;;;;;;;;;;;;5047459;28;4436;-64
2023/04/01 08:30:40;;;;;;;;;;;;;;;;;;5037843;28;4467;-61
2023/04/01 08:33:10;;;;;;;;;;;;;;;;;;5041558;28;4636;-63
2023/04/01 08:35:46;;;;;;;;;;;;;;;;;;5045494;28;4738;-63
2023/04/01 08:38:13;;;;;;;;;;;;;;;;;;5042244;28;4680;-67
2023/04/01 08:40:56;;;;;;;;;;;;;;;;;;5072255;28;3183;-63
2023/04/01 08:43:30;;;;;;;;;;;;;;;;;;5043496;28;4397;-64
2023/04/01 08:46:08;;;;;;;;;;;;;;;;;;5040936;28;4501;-61
2023/04/01 08:48:33;;;;;;;;;;;;;;;;;;5044057;28;4532;-63
2023/04/01 08:51:05;;;;;;;;;;;;;;;;;;5041485;28;4950;-61
2023/04/01 08:53:30;;;;;;;;;;;;;;;;;;5076290;28;5533;-66
2023/04/01 08:56:04;;;;;;;;;;;;;;;;;;5047952;28;3184;-62
2023/04/01 08:58:35;;;;;;;;;;;;;;;;;;5043364;28;6054;-61
2023/04/01 09:01:08;;;;;;;;;;;;;;;;;;5043182;28;4859;-57
2023/04/01 09:03:37;;;;;;;;;;;;;;;;;;5076800;28;5035;-57
2023/04/01 09:06:06;;;;;;;;;;;;;;;;;;5073133;28;4939;-58
2023/04/01 09:08:37;;;;;;;;;;;;;;;;;;5075148;28;4670;-59
2023/04/01 09:11:03;;;;;;;;;;;;;;;;;;5046995;28;4579;-61
2023/04/01 09:13:46;;;;;;;;;;;;;;;;;;5039984;28;1380;-60
2023/04/01 09:16:12;;;;;;;;;;;;;;;;;;5038809;28;5158;-60
2023/04/01 09:18:37;;;;;;;;;;;;;;;;;;5036361;28;4918;-59
2023/04/01 09:21:22;;;;;;;;;;;;;;;;;;5038057;28;4447;-62
2023/04/01 09:24:00;;;;;;;;;;;;;;;;;;5038278;28;4465;-62
2023/04/01 09:26:25;;;;;;;;;;;;;;;;;;5043241;28;4444;-62
2023/04/01 09:28:51;;;;;;;;;;;;;;;;;;5048150;28;1918;-60
2023/04/01 09:31:19;;;;;;;;;;;;;;;;;;5050087;28;4430;-62
2023/04/01 09:33:51;;;;;;;;;;;;;;;;;;5048270;28;4521;-62
2023/04/01 09:36:34;;;;;;;;;;;;;;;;;;5049620;28;4851;-63
2023/04/01 09:39:09;;;;;;;;;;;;;;;;;;5050538;28;4430;-68
2023/04/01 09:41:53;;;;;;;;;;;;;;;;;;5080862;28;5046;-58
2023/04/01 09:44:38;;;;;;;;;;;;;;;;;;5049519;28;4555;-71
2023/04/01 09:47:16;;;;;;;;;;;;;;;;;;5038405;28;5137;-62
2023/04/01 09:49:53;;;;;;;;;;;;;;;;;;5049228;28;1381;-62
2023/04/01 09:52:18;;;;;;;;;;;;;;;;;;5051961;28;4889;-63
2023/04/01 09:55:19;;;;;;;;;;;;;;;;;;5049583;28;5129;-61
2023/04/01 09:57:44;;;;;;;;;;;;;;;;;;4975122;28;4657;-64
2023/04/01 10:00:30;;;;;;;;;;;;;;;;;;5032989;28;4567;-64
2023/04/01 10:03:14;;;;;;;;;;;;;;;;;;5076745;28;5019;-63
2023/04/01 10:05:51;;;;;;;;;;;;;;;;;;5049486;28;4694;-64
2023/04/01 10:08:19;;;;;;;;;;;;;;;;;;5047282;28;5020;-65
2023/04/01 10:11:08;;;;;;;;;;;;;;;;;;5056437;28;3298;-65
2023/04/01 10:13:47;;;;;;;;;;;;;;;;;;5025155;28;4906;-65
2023/04/01 10:16:16;;;;;;;;;;;;;;;;;;5078253;28;4421;-59
2023/04/01 10:18:44;;;;;;;;;;;;;;;;;;5049676;28;4815;-60
2023/04/01 10:21:28;;;;;;;;;;;;;;;;;;5050943;28;4647;-52
2023/04/01 10:23:56;;;;;;;;;;;;;;;;;;5051443;28;4499;-53
2023/04/01 10:26:22;;;;;;;;;;;;;;;;;;5046756;28;4470;-63
2023/04/01 10:29:06;;;;;;;;;;;;;;;;;;5054913;28;3253;-70
2023/04/01 10:31:49;;;;;;;;;;;;;;;;;;5044312;28;4382;-65
2023/04/01 10:34:20;;;;;;;;;;;;;;;;;;5033549;28;4418;-69
2023/04/01 10:36:48;;;;;;;;;;;;;;;;;;5047158;28;4656;-64
2023/04/01 10:39:32;;;;;;;;;;;;;;;;;;5050824;28;4502;-64
2023/04/01 10:42:17;;;;;;;;;;;;;;;;;;5050483;28;4630;-64
2023/04/01 10:45:00;;;;;;;;;;;;;;;;;;5050217;28;4510;-64
2023/04/01 10:47:45;;;;;;;;;;;;;;;;;;5050395;28;5023;-64
2023/04/01 10:50:13;;;;;;;;;;;;;;;;;;5050642;28;4983;-64
2023/04/01 10:52:41;;;;;;;;;;;;;;;;;;5050223;28;1227;-63
2023/04/01 10:55:09;;;;;;;;;;;;;;;;;;5050949;28;4952;-64
2023/04/01 10:57:41;;;;;;;;;;;;;;;;;;5049185;28;4473;-63
2023/04/01 11:00:07;;;;;;;;;;;;;;;;;;5032783;28;4878;-63
2023/04/01 11:03:11;;;;;;;;;;;;;;;;;;5049001;28;4597;-63
2023/04/01 11:05:54;;;;;;;;;;;;;;;;;;4983890;28;4986;-64
2023/04/01 11:08:19;;;;;;;;;;;;;;;;;;4973940;28;5399;-65
2023/04/01 11:11:03;;;;;;;;;;;;;;;;;;5021651;28;1106;-63
2023/04/01 11:13:28;;;;;;;;;;;;;;;;;;5036946;28;4713;-64
2023/04/01 11:16:13;;;;;;;;;;;;;;;;;;5050197;28;4942;-63
2023/04/01 11:18:38;;;;;;;;;;;;;;;;;;5049477;28;5231;-64
2023/04/01 11:21:06;;;;;;;;;;;;;;;;;;5050659;28;4624;-64
2023/04/01 11:23:42;;;;;;;;;;;;;;;;;;5051419;28;4468;-64
2023/04/01 11:26:26;;;;;;;;;;;;;;;;;;5048803;28;4667;-64
2023/04/01 11:29:03;;;;;;;;;;;;;;;;;;5050876;28;1942;-64
2023/04/01 11:31:42;;;;;;;;;;;;;;;;;;5050979;28;4599;-64
2023/04/01 11:34:40;;;;;;;;;;;;;;;;;;5038267;28;4460;-64
2023/04/01 11:37:08;;;;;;;;;;;;;;;;;;5039620;28;4616;-64
2023/04/01 11:39:41;;;;;;;;;;;;;;;;;;5045080;28;4539;-64
2023/04/01 11:42:12;;;;;;;;;;;;;;;;;;5081533;28;4553;-64
2023/04/01 11:44:39;;;;;;;;;;;;;;;;;;5082359;28;4427;-64
2023/04/01 11:47:12;;;;;;;;;;;;;;;;;;5048826;28;5112;-63
2023/04/01 11:49:40;;;;;;;;;;;;;;;;;;5050574;28;2285;-64
2023/04/01 11:52:05;;;;;;;;;;;;;;;;;;5050284;28;4439;-63
2023/04/01 11:54:40;;;;;;;;;;;;;;;;;;5050511;28;4479;-63
2023/04/01 11:57:20;;;;;;;;;;;;;;;;;;5048441;28;4642;-64
2023/04/01 11:59:45;;;;;;;;;;;;;;;;;;5048907;28;4676;-64
2023/04/01 12:02:25;;;;;;;;;;;;;;;;;;5048998;28;4661;-64
2023/04/01 12:04:55;;;;;;;;;;;;;;;;;;5060816;28;4817;-65
2023/04/01 12:07:39;;;;;;;;;;;;;;;;;;5044573;28;4489;-63
2023/04/01 12:10:37;;;;;;;;;;;;;;;;;;5034406;28;4610;-64
2023/04/01 12:13:04;;;;;;;;;;;;;;;;;;5047713;28;5250;-63
2023/04/01 12:15:36;;;;;;;;;;;;;;;;;;5049455;28;4527;-63
2023/04/01 12:18:20;;;;;;;;;;;;;;;;;;5049270;28;4679;-64
2023/04/01 12:20:51;;;;;;;;;;;;;;;;;;5049670;28;5150;-64
2023/04/01 12:23:35;;;;;;;;;;;;;;;;;;5049984;28;4648;-64
2023/04/01 12:26:12;;;;;;;;;;;;;;;;;;5030594;28;918;-64
2023/04/01 12:28:37;;;;;;;;;;;;;;;;;;5029340;28;4899;-63
2023/04/01 12:31:05;;;;;;;;;;;;;;;;;;5029706;28;5155;-64
2023/04/01 12:33:43;;;;;;;;;;;;;;;;;;5029436;28;4891;-63
2023/04/01 12:36:11;;;;;;;;;;;;;;;;;;5048127;28;5050;-63
2023/04/01 12:38:40;;;;;;;;;;;;;;;;;;5049401;28;4962;-63
2023/04/01 12:41:05;;;;;;;;;;;;;;;;;;5048964;28;4704;-63
2023/04/01 12:43:36;;;;;;;;;;;;;;;;;;5049654;28;1275;-64
2023/04/01 12:46:05;;;;;;;;;;;;;;;;;;5048747;28;5032;-63
2023/04/01 12:48:39;;;;;;;;;;;;;;;;;;5049289;28;4713;-64
2023/04/01 12:51:20;;;;;;;;;;;;;;;;;;5045557;28;4434;-63
2023/04/01 12:53:52;;;;;;;;;;;;;;;;;;5049448;28;4615;-63
2023/04/01 12:56:36;;;;;;;;;;;;;;;;;;5048360;28;4461;-65
2023/04/01 12:59:13;;;;;;;;;;;;;;;;;;5038944;28;1061;-64
2023/04/01 13:01:51;;;;;;;;;;;;;;;;;;5080951;28;4690;-64
2023/04/01 13:04:30;;;;;;;;;;;;;;;;;;5046477;28;4977;-63
2023/04/01 13:07:14;;;;;;;;;;;;;;;;;;5048938;28;4880;-63
2023/04/01 13:09:48;;;;;;;;;;;;;;;;;;5081033;28;4601;-63
2023/04/01 13:12:32;;;;;;;;;;;;;;;;;;5080791;28;4467;-64
2023/04/01 13:15:10;;;;;;;;;;;;;;;;;;5028499;28;5074;-63
2023/04/01 13:17:44;;;;;;;;;;;;;;;;;;5079863;28;4574;-64
2023/04/01 13:20:10;;;;;;;;;;;;;;;;;;5046919;28;4512;-63
2023/04/01 13:22:50;;;;;;;;;;;;;;;;;;5047835;28;1684;-64
2023/04/01 13:25:15;;;;;;;;;;;;;;;;;;5048797;28;4586;-64
2023/04/01 13:27:42;;;;;;;;;;;;;;;;;;5047747;28;4424;-64
2023/04/01 13:30:07;;;;;;;;;;;;;;;;;;5081065;28;4971;-63
2023/04/01 13:32:50;;;;;;;;;;;;;;;;;;5047571;28;4470;-64
2023/04/01 13:35:21;;;;;;;;;;;;;;;;;;5055429;28;5054;-64
2023/04/01 13:37:50;;;;;;;;;;;;;;;;;;5080982;28;1080;-63
2023/04/01 13:40:15;;;;;;;;;;;;;;;;;;5048898;28;4443;-63
2023/04/01 13:42:45;;;;;;;;;;;;;;;;;;5050383;28;4410;-63
2023/04/01 13:45:21;;;;;;;;;;;;;;;;;;5083939;28;5025;-64
2023/04/01 13:48:05;;;;;;;;;;;;;;;;;;5076789;28;4694;-64
2023/04/01 13:50:46;;;;;;;;;;;;;;;;;;5049722;28;4502;-64
2023/04/01 13:53:17;;;;;;;;;;;;;;;;;;5050009;28;4697;-64
2023/04/01 13:55:45;;;;;;;;;;;;;;;;;;5052566;28;1152;-64
2023/04/01 13:58:19;;;;;;;;;;;;;;;;;;5046841;28;4989;-64
2023/04/01 14:00:48;;;;;;;;;;;;;;;;;;5051206;28;4402;-64
2023/04/01 14:03:16;;;;;;;;;;;;;;;;;;5045180;28;4520;-64
2023/04/01 14:05:48;;;;;;;;;;;;;;;;;;5040584;28;5107;-63
2023/04/01 14:08:19;;;;;;;;;;;;;;;;;;5051535;28;4658;-64
2023/04/01 14:10:50;;;;;;;;;;;;;;;;;;5052357;28;942;-63
2023/04/01 14:13:35;;;;;;;;;;;;;;;;;;5035834;28;4994;-63
2023/04/01 14:16:07;;;;;;;;;;;;;;;;;;5040077;28;4935;-64
2023/04/01 14:18:32;;;;;;;;;;;;;;;;;;5042163;28;4504;-59
2023/04/01 14:21:03;;;;;;;;;;;;;;;;;;5045584;28;4486;-59
2023/04/01 14:23:29;;;;;;;;;;;;;;;;;;5045742;28;4997;-59
2023/04/01 14:26:03;;;;;;;;;;;;;;;;;;5048648;28;3279;-59
2023/04/01 14:28:47;;;;;;;;;;;;;;;;;;5047588;28;5019;-59
2023/04/01 14:31:31;;;;;;;;;;;;;;;;;;5046476;28;4612;-49
2023/04/01 14:34:03;;;;;;;;;;;;;;;;;;5041812;28;4475;-58
2023/04/01 14:36:31;;;;;;;;;;;;;;;;;;5059179;28;4479;-57
2023/04/01 14:39:16;;;;;;;;;;;;;;;;;;5045329;28;5071;-57
2023/04/01 14:42:19;;;;;;;;;;;;;;;;;;5057995;28;4992;-56
2023/04/01 14:45:03;;;;;;;;;;;;;;;;;;5000260;28;4639;-55
2023/04/01 14:47:31;;;;;;;;;;;;;;;;;;4996880;28;4630;-56
2023/04/01 14:50:06;;;;;;;;;;;;;;;;;;5031672;28;3375;-57
2023/04/01 14:52:34;;;;;;;;;;;;;;;;;;5083532;28;4990;-57
2023/04/01 14:54:59;;;;;;;;;;;;;;;;;;5055479;28;5213;-57
2023/04/01 14:57:26;;;;;;;;;;;;;;;;;;5078382;28;5040;-62
2023/04/01 14:59:53;;;;;;;;;;;;;;;;;;5051220;28;4513;-56
2023/04/01 15:02:24;;;;;;;;;;;;;;;;;;5050836;28;5028;-57
2023/04/01 15:04:50;;;;;;;;;;;;;;;;;;5044020;28;4689;-59
2023/04/01 15:07:34;;;;;;;;;;;;;;;;;;5051575;28;4391;-58
2023/04/01 15:10:02;;;;;;;;;;;;;;;;;;5050678;28;5198;-58
2023/04/01 15:12:34;;;;;;;;;;;;;;;;;;5053652;28;4747;-57
2023/04/01 15:15:02;;;;;;;;;;;;;;;;;;5053747;28;5512;-57
2023/04/01 15:17:31;;;;;;;;;;;;;;;;;;5086245;28;4712;-56
2023/04/01 15:19:56;;;;;;;;;;;;;;;;;;5085192;28;1260;-55
2023/04/01 15:22:27;;;;;;;;;;;;;;;;;;5056143;28;4412;-56
2023/04/01 15:24:59;;;;;;;;;;;;;;;;;;5057785;28;4481;-58
2023/04/01 15:27:45;;;;;;;;;;;;;;;;;;5049628;28;4463;-51
2023/04/01 15:30:49;;;;;;;;;;;;;;;;;;5028984;28;5189;-58
2023/04/01 15:33:29;;;;;;;;;;;;;;;;;;4999985;28;4667;-57
2023/04/01 15:36:09;;;;;;;;;;;;;;;;;;4996175;28;4655;-52
2023/04/01 15:38:44;;;;;;;;;;;;;;;;;;5035922;28;4664;-57
2023/04/01 15:41:16;;;;;;;;;;;;;;;;;;5054079;28;4557;-57
2023/04/01 15:43:44;;;;;;;;;;;;;;;;;;5048115;28;1465;-57
2023/04/01 15:46:28;;;;;;;;;;;;;;;;;;5052878;28;4622;-58
2023/04/01 15:48:53;;;;;;;;;;;;;;;;;;5048689;28;4497;-58
2023/04/01 15:51:32;;;;;;;;;;;;;;;;;;5054367;28;4569;-57
2023/04/01 15:54:07;;;;;;;;;;;;;;;;;;5051220;28;4468;-57
2023/04/01 15:56:48;;;;;;;;;;;;;;;;;;5048202;28;4508;-57
2023/04/01 15:59:19;;;;;;;;;;;;;;;;;;5047559;28;5436;-58
2023/04/01 16:01:54;;;;;;;;;;;;;;;;;;5045738;28;2039;-57
2023/04/01 16:04:19;;;;;;;;;;;;;;;;;;5041880;28;4640;-55
2023/04/01 16:06:58;;;;;;;;;;;;;;;;;;5053339;28;4589;-57
2023/04/01 16:09:27;;;;;;;;;;;;;;;;;;5053473;28;4563;-58
2023/04/01 16:11:52;;;;;;;;;;;;;;;;;;5040340;28;5074;-57
2023/04/01 16:14:17;;;;;;;;;;;;;;;;;;5052694;28;4674;-55
2023/04/01 16:16:47;;;;;;;;;;;;;;;;;;5050092;28;3243;-56
2023/04/01 16:19:32;;;;;;;;;;;;;;;;;;5050857;28;4940;-57
2023/04/01 16:22:06;;;;;;;;;;;;;;;;;;5046121;28;4978;-58
2023/04/01 16:25:01;;;;;;;;;;;;;;;;;;5055949;28;4515;-57
2023/04/01 16:27:37;;;;;;;;;;;;;;;;;;5037094;28;5065;-57
2023/04/01 16:30:21;;;;;;;;;;;;;;;;;;5050220;28;4467;-57
2023/04/01 16:32:51;;;;;;;;;;;;;;;;;;5053105;28;5039;-55
2023/04/01 16:35:55;;;;;;;;;;;;;;;;;;5079354;28;5191;-52
2023/04/01 16:38:30;;;;;;;;;;;;;;;;;;5029331;28;4478;-58
2023/04/01 16:41:01;;;;;;;;;;;;;;;;;;5020201;28;3500;-57
2023/04/01 16:47:05;;;;;;;;;;;;;;;;;;4136258;28;3515;-56
2023/04/01 16:49:32;;;;;;;;;;;;;;;;;;5032584;28;4573;-59
2023/04/01 16:51:57;;;;;;;;;;;;;;;;;;5045236;28;4503;-59
2023/04/01 16:54:40;;;;;;;;;;;;;;;;;;5051686;28;4656;-59
2023/04/01 16:57:06;;;;;;;;;;;;;;;;;;5073406;28;5036;-56
2023/04/01 16:59:44;;;;;;;;;;;;;;;;;;5047303;28;4563;-58
2023/04/01 17:02:19;;;;;;;;;;;;;;;;;;5048549;28;4456;-58
2023/04/01 17:04:45;;;;;;;;;;;;;;;;;;5075898;28;4754;-59
2023/04/01 17:07:17;;;;;;;;;;;;;;;;;;5078635;28;5212;-57
2023/04/01 17:10:11;;;;;;;;;;;;;;;;;;5046248;28;4435;-54
2023/04/01 18:04:28;;;;;;;;;;;;;;;;;;5040478;28;1369;-58
2023/04/01 18:07:16;;;;;;;;;;;;;;;;;;5046993;28;1744;-59
2023/04/01 18:09:52;;;;;;;;;;;;;;;;;;5072597;28;1851;-55
2023/04/01 18:12:17;;;;;;;;;;;;;;;;;;5050416;28;1774;-58
2023/04/01 18:14:51;;;;;;;;;;;;;;;;;;5051985;28;1687;-61
2023/04/01 18:17:43;;;;;;;;;;;;;;;;;;5048162;28;1914;-58
2023/04/01 18:20:28;;;;;;;;;;;;;;;;;;5036976;28;1663;-57
2023/04/01 18:23:14;;;;;;;;;;;;;;;;;;5051442;28;1727;-58
2023/04/01 18:25:50;;;;;;;;;;;;;;;;;;5049842;28;1675;-59
2023/04/01 18:28:18;;;;;;;;;;;;;;;;;;5082182;28;1988;-58